Anchorage, AK

3:31 PM AKST on December 25, 2014 (GMT -0900)
Alaska Industrial Hardware on Viking Dr | Change Station
CLOSE
Current Station
Personal Weather Station
Location: Anchorage, AK
Elevation: 100 ft
Nearby Weather Stations

Elev 100 ft 61.22 °N, 149.84 °W | Updated 1 minute ago

Clear
Clear
38.5 °F
Feels Like 31 °F
N
11.0
Wind Variable Wind from SSW
Gusts 25.0 mph

Today
High -- | Low -- °F
--% Chance of Precip.
Yesterday
High -- | Low -- °F
Precip. -- in
10:15 AM 3:44 PM
Waxing Crescent, 20% visible
Pressure 29.65 in
Visibility 10.0 miles
Clouds Clear
Windchill 31 °F
Dew Point 29 °F
Humidity 68%
Rainfall 0.18 in
Snow Depth Not available.
UV 0 out of 12
Pollen Not available.
Air Quality Not available.
Flu Activity Not available.
METAR PAED 252358Z 23022G29KT 10SM CLR 03/M03 A2965 RMK AO2A PK WND 23029/53 SLP038 60007 4/006 T00331029 10033 21036 52018

More Conditions Fewer Conditions

Pressure 29.65 in
Visibility 10.0 miles
Clouds Clear
Windchill 31 °F
Dew Point 29 °F
Humidity 68%
Rainfall 0.18 in
Snow Depth Not available.
UV 0 out of 12
Pollen Not available.
Air Quality Not available.
Flu Activity Not available.
METAR PAED 252358Z 23022G29KT 10SM CLR 03/M03 A2965 RMK AO2A PK WND 23029/53 SLP038 60007 4/006 T00331029 10033 21036 52018

More Conditions Fewer Conditions

10-Day Weather Forecast

Almanac

Astronomy

Dec. 25, 2014 Rise Set
Actual Time
Civil Twilight
Nautical Twilight
Astronomical Twilight
Moon
Length of Visible Light
Length of Day
Tomorrow will be .
, % of the Moon is Illuminated

Today's Extremes

State Highs State Lows

Community

WunderPhotos

Upload Photos

1,780,479 photos uploaded!

WunderBlogs® & News

Nearby

Air Quality

  Air Quality AQ Index Pollutant
Not available.

Snow Depth

Station Depth Elevation

Earthquake Activity

City Distance Mag. Time & Date
Minimum magnitude displayed is 2.5.

Coastal Water Temperatures

Place Temperature

Nearby Weather Stations